sensor_id;sensor_type;location;lat;lon;timestamp;P1;durP1;ratioP1;P2;durP2;ratioP2
70967;SDS011;58629;48.808;8.820;2022-07-04T00:02:04;2.87;;;2.00;;
70967;SDS011;58629;48.808;8.820;2022-07-04T00:04:29;3.67;;;2.30;;
70967;SDS011;58629;48.808;8.820;2022-07-04T00:06:54;4.43;;;2.27;;
70967;SDS011;58629;48.808;8.820;2022-07-04T00:09:20;2.60;;;2.20;;
70967;SDS011;58629;48.808;8.820;2022-07-04T00:11:45;2.30;;;2.07;;
70967;SDS011;58629;48.808;8.820;2022-07-04T00:14:10;7.20;;;2.30;;
70967;SDS011;58629;48.808;8.820;2022-07-04T00:16:36;3.13;;;2.13;;
70967;SDS011;58629;48.808;8.820;2022-07-04T00:19:01;2.83;;;1.93;;
70967;SDS011;58629;48.808;8.820;2022-07-04T00:21:26;2.20;;;2.00;;
70967;SDS011;58629;48.808;8.820;2022-07-04T00:23:52;3.83;;;2.40;;
70967;SDS011;58629;48.808;8.820;2022-07-04T00:26:17;3.03;;;2.23;;
70967;SDS011;58629;48.808;8.820;2022-07-04T00:28:42;3.20;;;2.20;;
70967;SDS011;58629;48.808;8.820;2022-07-04T00:31:08;3.43;;;2.30;;
70967;SDS011;58629;48.808;8.820;2022-07-04T00:33:33;4.07;;;2.10;;
70967;SDS011;58629;48.808;8.820;2022-07-04T00:35:59;2.60;;;2.00;;
70967;SDS011;58629;48.808;8.820;2022-07-04T00:38:24;2.40;;;2.20;;
70967;SDS011;58629;48.808;8.820;2022-07-04T00:40:49;3.03;;;2.20;;
70967;SDS011;58629;48.808;8.820;2022-07-04T00:43:20;2.40;;;2.20;;
70967;SDS011;58629;48.808;8.820;2022-07-04T00:45:50;4.75;;;2.13;;
70967;SDS011;58629;48.808;8.820;2022-07-04T00:48:15;3.20;;;2.20;;
70967;SDS011;58629;48.808;8.820;2022-07-04T00:50:47;3.00;;;2.00;;
70967;SDS011;58629;48.808;8.820;2022-07-04T00:53:19;3.03;;;1.98;;
70967;SDS011;58629;48.808;8.820;2022-07-04T00:55:47;3.10;;;1.80;;
70967;SDS011;58629;48.808;8.820;2022-07-04T00:58:13;3.90;;;1.80;;
70967;SDS011;58629;48.808;8.820;2022-07-04T01:00:38;3.07;;;2.07;;
70967;SDS011;58629;48.808;8.820;2022-07-04T01:03:03;2.30;;;2.10;;
70967;SDS011;58629;48.808;8.820;2022-07-04T01:05:29;5.33;;;2.30;;
70967;SDS011;58629;48.808;8.820;2022-07-04T01:07:54;5.30;;;2.05;;
70967;SDS011;58629;48.808;8.820;2022-07-04T01:10:19;3.20;;;2.20;;
70967;SDS011;58629;48.808;8.820;2022-07-04T01:12:45;4.73;;;2.10;;
70967;SDS011;58629;48.808;8.820;2022-07-04T01:15:10;3.70;;;2.30;;
70967;SDS011;58629;48.808;8.820;2022-07-04T01:17:35;3.83;;;2.30;;
70967;SDS011;58629;48.808;8.820;2022-07-04T01:20:01;8.97;;;2.50;;
70967;SDS011;58629;48.808;8.820;2022-07-04T01:22:27;2.90;;;2.30;;
70967;SDS011;58629;48.808;8.820;2022-07-04T01:24:53;3.40;;;2.27;;
70967;SDS011;58629;48.808;8.820;2022-07-04T01:27:18;4.27;;;2.57;;
70967;SDS011;58629;48.808;8.820;2022-07-04T01:29:43;4.07;;;2.60;;
70967;SDS011;58629;48.808;8.820;2022-07-04T01:32:09;4.25;;;2.22;;
70967;SDS011;58629;48.808;8.820;2022-07-04T01:34:35;3.45;;;2.22;;
70967;SDS011;58629;48.808;8.820;2022-07-04T01:37:01;2.70;;;2.30;;
70967;SDS011;58629;48.808;8.820;2022-07-04T01:39:27;2.60;;;2.40;;
70967;SDS011;58629;48.808;8.820;2022-07-04T01:41:53;2.42;;;2.22;;
70967;SDS011;58629;48.808;8.820;2022-07-04T01:44:19;3.83;;;2.23;;
70967;SDS011;58629;48.808;8.820;2022-07-04T01:46:44;4.90;;;2.43;;
70967;SDS011;58629;48.808;8.820;2022-07-04T01:49:09;2.92;;;2.30;;
70967;SDS011;58629;48.808;8.820;2022-07-04T01:51:35;3.17;;;2.17;;
70967;SDS011;58629;48.808;8.820;2022-07-04T01:54:00;3.33;;;2.33;;
70967;SDS011;58629;48.808;8.820;2022-07-04T01:56:25;2.40;;;2.20;;
70967;SDS011;58629;48.808;8.820;2022-07-04T01:58:51;2.73;;;2.00;;
70967;SDS011;58629;48.808;8.820;2022-07-04T02:01:16;2.50;;;2.30;;
70967;SDS011;58629;48.808;8.820;2022-07-04T02:04:00;4.15;;;2.30;;
70967;SDS011;58629;48.808;8.820;2022-07-04T02:06:27;4.03;;;2.15;;
70967;SDS011;58629;48.808;8.820;2022-07-04T02:08:53;4.13;;;2.40;;
70967;SDS011;58629;48.808;8.820;2022-07-04T02:11:37;2.53;;;2.20;;
70967;SDS011;58629;48.808;8.820;2022-07-04T02:14:22;3.90;;;2.20;;
70967;SDS011;58629;48.808;8.820;2022-07-04T02:16:47;3.20;;;2.40;;
70967;SDS011;58629;48.808;8.820;2022-07-04T02:19:12;2.90;;;2.30;;
70967;SDS011;58629;48.808;8.820;2022-07-04T02:21:38;3.80;;;2.20;;
70967;SDS011;58629;48.808;8.820;2022-07-04T02:24:03;2.60;;;2.20;;
70967;SDS011;58629;48.808;8.820;2022-07-04T02:26:29;4.07;;;2.40;;
70967;SDS011;58629;48.808;8.820;2022-07-04T02:28:54;3.70;;;2.50;;
70967;SDS011;58629;48.808;8.820;2022-07-04T02:31:20;3.37;;;2.20;;
70967;SDS011;58629;48.808;8.820;2022-07-04T02:33:45;4.20;;;2.40;;
70967;SDS011;58629;48.808;8.820;2022-07-04T02:36:10;3.90;;;2.10;;
70967;SDS011;58629;48.808;8.820;2022-07-04T02:38:36;3.23;;;2.53;;
70967;SDS011;58629;48.808;8.820;2022-07-04T02:41:01;7.03;;;2.53;;
70967;SDS011;58629;48.808;8.820;2022-07-04T02:43:26;3.07;;;2.27;;
70967;SDS011;58629;48.808;8.820;2022-07-04T02:45:51;3.78;;;2.20;;
70967;SDS011;58629;48.808;8.820;2022-07-04T02:48:17;3.70;;;2.30;;
70967;SDS011;58629;48.808;8.820;2022-07-04T02:50:42;3.83;;;2.20;;
70967;SDS011;58629;48.808;8.820;2022-07-04T02:53:07;3.37;;;2.30;;
70967;SDS011;58629;48.808;8.820;2022-07-04T02:55:33;4.63;;;2.40;;
70967;SDS011;58629;48.808;8.820;2022-07-04T02:57:58;3.57;;;2.40;;
70967;SDS011;58629;48.808;8.820;2022-07-04T03:00:23;4.00;;;2.53;;
70967;SDS011;58629;48.808;8.820;2022-07-04T03:02:49;4.33;;;2.30;;
70967;SDS011;58629;48.808;8.820;2022-07-04T03:05:14;4.18;;;2.10;;
70967;SDS011;58629;48.808;8.820;2022-07-04T03:07:40;3.10;;;2.00;;
70967;SDS011;58629;48.808;8.820;2022-07-04T03:10:05;6.63;;;2.30;;
70967;SDS011;58629;48.808;8.820;2022-07-04T03:12:31;3.15;;;2.10;;
70967;SDS011;58629;48.808;8.820;2022-07-04T03:14:56;4.97;;;2.30;;
70967;SDS011;58629;48.808;8.820;2022-07-04T03:17:24;3.78;;;2.22;;
70967;SDS011;58629;48.808;8.820;2022-07-04T03:19:54;2.95;;;2.10;;
70967;SDS011;58629;48.808;8.820;2022-07-04T03:22:19;4.22;;;2.30;;
70967;SDS011;58629;48.808;8.820;2022-07-04T03:24:44;3.00;;;2.10;;
70967;SDS011;58629;48.808;8.820;2022-07-04T03:27:10;3.23;;;2.20;;
70967;SDS011;58629;48.808;8.820;2022-07-04T03:29:35;2.60;;;2.10;;
70967;SDS011;58629;48.808;8.820;2022-07-04T03:32:00;2.50;;;2.30;;
70967;SDS011;58629;48.808;8.820;2022-07-04T03:34:26;3.57;;;2.20;;
70967;SDS011;58629;48.808;8.820;2022-07-04T03:36:51;3.27;;;2.47;;
70967;SDS011;58629;48.808;8.820;2022-07-04T03:39:16;3.60;;;2.10;;
70967;SDS011;58629;48.808;8.820;2022-07-04T03:41:42;3.07;;;2.30;;
70967;SDS011;58629;48.808;8.820;2022-07-04T03:44:07;2.57;;;2.30;;
70967;SDS011;58629;48.808;8.820;2022-07-04T03:46:32;2.23;;;2.03;;
70967;SDS011;58629;48.808;8.820;2022-07-04T03:48:58;2.90;;;2.20;;
70967;SDS011;58629;48.808;8.820;2022-07-04T03:51:24;3.88;;;2.30;;
70967;SDS011;58629;48.808;8.820;2022-07-04T03:53:49;4.53;;;2.33;;
70967;SDS011;58629;48.808;8.820;2022-07-04T03:56:14;4.07;;;2.33;;
70967;SDS011;58629;48.808;8.820;2022-07-04T03:58:40;5.88;;;2.30;;
70967;SDS011;58629;48.808;8.820;2022-07-04T04:01:07;2.53;;;2.33;;
70967;SDS011;58629;48.808;8.820;2022-07-04T04:03:35;2.63;;;2.20;;
70967;SDS011;58629;48.808;8.820;2022-07-04T04:06:19;3.13;;;2.33;;
70967;SDS011;58629;48.808;8.820;2022-07-04T04:08:45;3.93;;;2.40;;
70967;SDS011;58629;48.808;8.820;2022-07-04T04:11:10;2.90;;;2.33;;
70967;SDS011;58629;48.808;8.820;2022-07-04T04:13:35;3.92;;;2.40;;
70967;SDS011;58629;48.808;8.820;2022-07-04T04:16:00;2.53;;;2.33;;
70967;SDS011;58629;48.808;8.820;2022-07-04T04:18:26;2.20;;;2.00;;
70967;SDS011;58629;48.808;8.820;2022-07-04T04:20:51;2.73;;;1.87;;
70967;SDS011;58629;48.808;8.820;2022-07-04T04:23:16;1.50;;;1.40;;
70967;SDS011;58629;48.808;8.820;2022-07-04T04:25:42;1.40;;;1.30;;
70967;SDS011;58629;48.808;8.820;2022-07-04T04:28:07;1.40;;;1.30;;
70967;SDS011;58629;48.808;8.820;2022-07-04T04:30:32;1.60;;;1.50;;
70967;SDS011;58629;48.808;8.820;2022-07-04T04:32:58;1.45;;;1.30;;
70967;SDS011;58629;48.808;8.820;2022-07-04T04:35:23;1.20;;;1.10;;
70967;SDS011;58629;48.808;8.820;2022-07-04T04:37:49;1.00;;;1.00;;
70967;SDS011;58629;48.808;8.820;2022-07-04T04:40:14;2.27;;;1.73;;
70967;SDS011;58629;48.808;8.820;2022-07-04T04:42:39;3.13;;;2.37;;
70967;SDS011;58629;48.808;8.820;2022-07-04T04:45:05;2.75;;;1.98;;
70967;SDS011;58629;48.808;8.820;2022-07-04T04:47:31;2.83;;;1.90;;
70967;SDS011;58629;48.808;8.820;2022-07-04T04:49:56;1.90;;;1.70;;
70967;SDS011;58629;48.808;8.820;2022-07-04T04:52:21;3.27;;;2.10;;
70967;SDS011;58629;48.808;8.820;2022-07-04T04:54:47;3.60;;;2.30;;
70967;SDS011;58629;48.808;8.820;2022-07-04T04:57:12;2.45;;;2.00;;
70967;SDS011;58629;48.808;8.820;2022-07-04T04:59:37;3.10;;;1.70;;
70967;SDS011;58629;48.808;8.820;2022-07-04T05:02:03;2.47;;;1.60;;
70967;SDS011;58629;48.808;8.820;2022-07-04T05:04:28;2.20;;;1.80;;
70967;SDS011;58629;48.808;8.820;2022-07-04T05:06:53;1.60;;;1.30;;
70967;SDS011;58629;48.808;8.820;2022-07-04T05:09:19;1.42;;;1.30;;
70967;SDS011;58629;48.808;8.820;2022-07-04T05:11:45;1.20;;;1.10;;
70967;SDS011;58629;48.808;8.820;2022-07-04T05:14:11;2.40;;;1.90;;
70967;SDS011;58629;48.808;8.820;2022-07-04T05:16:38;1.80;;;1.40;;
70967;SDS011;58629;48.808;8.820;2022-07-04T05:19:03;1.40;;;1.30;;
70967;SDS011;58629;48.808;8.820;2022-07-04T05:21:29;1.10;;;1.00;;
70967;SDS011;58629;48.808;8.820;2022-07-04T05:23:54;2.05;;;1.40;;
70967;SDS011;58629;48.808;8.820;2022-07-04T05:26:20;2.10;;;1.60;;
70967;SDS011;58629;48.808;8.820;2022-07-04T05:28:45;3.00;;;1.40;;
70967;SDS011;58629;48.808;8.820;2022-07-04T05:31:11;1.70;;;1.20;;
70967;SDS011;58629;48.808;8.820;2022-07-04T05:33:36;3.17;;;1.80;;
70967;SDS011;58629;48.808;8.820;2022-07-04T05:36:01;1.43;;;1.30;;
70967;SDS011;58629;48.808;8.820;2022-07-04T05:38:27;2.73;;;1.80;;
70967;SDS011;58629;48.808;8.820;2022-07-04T05:40:52;5.17;;;2.03;;
70967;SDS011;58629;48.808;8.820;2022-07-04T05:43:17;3.53;;;1.70;;
70967;SDS011;58629;48.808;8.820;2022-07-04T05:45:43;3.07;;;1.70;;
70967;SDS011;58629;48.808;8.820;2022-07-04T05:48:08;4.05;;;1.73;;
70967;SDS011;58629;48.808;8.820;2022-07-04T05:50:33;2.10;;;1.70;;
70967;SDS011;58629;48.808;8.820;2022-07-04T05:52:59;3.80;;;1.90;;
70967;SDS011;58629;48.808;8.820;2022-07-04T05:55:25;4.72;;;1.80;;
70967;SDS011;58629;48.808;8.820;2022-07-04T05:57:50;1.92;;;1.70;;
70967;SDS011;58629;48.808;8.820;2022-07-04T06:00:16;3.17;;;1.70;;
70967;SDS011;58629;48.808;8.820;2022-07-04T06:02:41;3.13;;;1.70;;
70967;SDS011;58629;48.808;8.820;2022-07-04T06:05:07;2.67;;;1.80;;
70967;SDS011;58629;48.808;8.820;2022-07-04T06:07:33;3.87;;;1.50;;
70967;SDS011;58629;48.808;8.820;2022-07-04T06:09:58;2.60;;;1.80;;
70967;SDS011;58629;48.808;8.820;2022-07-04T06:12:23;2.50;;;1.80;;
70967;SDS011;58629;48.808;8.820;2022-07-04T06:14:49;2.70;;;1.98;;
70967;SDS011;58629;48.808;8.820;2022-07-04T06:17:14;2.60;;;1.70;;
70967;SDS011;58629;48.808;8.820;2022-07-04T06:19:39;2.30;;;1.60;;
70967;SDS011;58629;48.808;8.820;2022-07-04T06:22:05;2.67;;;1.77;;
70967;SDS011;58629;48.808;8.820;2022-07-04T06:24:30;2.13;;;1.60;;
70967;SDS011;58629;48.808;8.820;2022-07-04T06:26:55;2.57;;;1.70;;
70967;SDS011;58629;48.808;8.820;2022-07-04T06:29:21;2.87;;;1.80;;
70967;SDS011;58629;48.808;8.820;2022-07-04T06:31:46;2.55;;;1.73;;
70967;SDS011;58629;48.808;8.820;2022-07-04T06:34:11;3.50;;;1.90;;
70967;SDS011;58629;48.808;8.820;2022-07-04T06:36:55;2.95;;;2.00;;
70967;SDS011;58629;48.808;8.820;2022-07-04T06:39:20;3.33;;;1.97;;
70967;SDS011;58629;48.808;8.820;2022-07-04T06:41:46;2.10;;;1.90;;
70967;SDS011;58629;48.808;8.820;2022-07-04T06:44:11;3.37;;;2.00;;
70967;SDS011;58629;48.808;8.820;2022-07-04T06:46:37;3.07;;;1.90;;
70967;SDS011;58629;48.808;8.820;2022-07-04T06:49:05;2.87;;;2.03;;
70967;SDS011;58629;48.808;8.820;2022-07-04T06:51:30;2.88;;;1.90;;
70967;SDS011;58629;48.808;8.820;2022-07-04T06:53:56;5.53;;;1.90;;
70967;SDS011;58629;48.808;8.820;2022-07-04T06:56:21;3.30;;;1.60;;
70967;SDS011;58629;48.808;8.820;2022-07-04T06:58:46;2.73;;;1.70;;
70967;SDS011;58629;48.808;8.820;2022-07-04T07:01:11;3.07;;;1.70;;
70967;SDS011;58629;48.808;8.820;2022-07-04T07:03:37;1.63;;;1.40;;
70967;SDS011;58629;48.808;8.820;2022-07-04T07:06:02;1.40;;;1.30;;
70967;SDS011;58629;48.808;8.820;2022-07-04T07:08:28;2.05;;;1.20;;
70967;SDS011;58629;48.808;8.820;2022-07-04T07:10:57;1.65;;;1.40;;
70967;SDS011;58629;48.808;8.820;2022-07-04T07:13:37;3.92;;;2.00;;
70967;SDS011;58629;48.808;8.820;2022-07-04T07:16:06;2.53;;;1.92;;
70967;SDS011;58629;48.808;8.820;2022-07-04T07:18:31;3.07;;;1.60;;
70967;SDS011;58629;48.808;8.820;2022-07-04T07:20:56;2.87;;;1.90;;
70967;SDS011;58629;48.808;8.820;2022-07-04T07:23:21;3.90;;;2.10;;
70967;SDS011;58629;48.808;8.820;2022-07-04T07:25:47;1.87;;;1.60;;
70967;SDS011;58629;48.808;8.820;2022-07-04T07:28:12;1.67;;;1.30;;
70967;SDS011;58629;48.808;8.820;2022-07-04T07:30:38;3.03;;;2.00;;
70967;SDS011;58629;48.808;8.820;2022-07-04T07:33:03;2.10;;;1.90;;
70967;SDS011;58629;48.808;8.820;2022-07-04T07:35:29;2.93;;;2.10;;
70967;SDS011;58629;48.808;8.820;2022-07-04T07:37:54;3.10;;;2.17;;
70967;SDS011;58629;48.808;8.820;2022-07-04T07:40:19;3.17;;;2.10;;
70967;SDS011;58629;48.808;8.820;2022-07-04T07:42:44;2.93;;;2.00;;
70967;SDS011;58629;48.808;8.820;2022-07-04T07:45:10;2.10;;;1.90;;
70967;SDS011;58629;48.808;8.820;2022-07-04T07:47:35;2.50;;;1.50;;
70967;SDS011;58629;48.808;8.820;2022-07-04T07:50:00;2.60;;;1.90;;
70967;SDS011;58629;48.808;8.820;2022-07-04T07:52:28;3.28;;;2.10;;
70967;SDS011;58629;48.808;8.820;2022-07-04T07:54:53;2.47;;;1.90;;
70967;SDS011;58629;48.808;8.820;2022-07-04T07:57:19;2.67;;;2.07;;
70967;SDS011;58629;48.808;8.820;2022-07-04T07:59:44;2.67;;;2.20;;
70967;SDS011;58629;48.808;8.820;2022-07-04T08:02:09;10.90;;;3.23;;
70967;SDS011;58629;48.808;8.820;2022-07-04T08:04:34;2.93;;;2.30;;
70967;SDS011;58629;48.808;8.820;2022-07-04T08:07:04;2.70;;;2.15;;
70967;SDS011;58629;48.808;8.820;2022-07-04T08:09:30;2.60;;;2.20;;
70967;SDS011;58629;48.808;8.820;2022-07-04T08:11:56;3.00;;;2.10;;
70967;SDS011;58629;48.808;8.820;2022-07-04T08:14:22;2.92;;;2.00;;
70967;SDS011;58629;48.808;8.820;2022-07-04T08:16:48;3.70;;;2.60;;
70967;SDS011;58629;48.808;8.820;2022-07-04T08:19:14;2.10;;;1.60;;
70967;SDS011;58629;48.808;8.820;2022-07-04T08:21:39;2.37;;;2.00;;
70967;SDS011;58629;48.808;8.820;2022-07-04T08:24:05;2.40;;;2.20;;
70967;SDS011;58629;48.808;8.820;2022-07-04T08:26:30;2.40;;;1.90;;
70967;SDS011;58629;48.808;8.820;2022-07-04T08:28:55;3.50;;;2.00;;
70967;SDS011;58629;48.808;8.820;2022-07-04T08:31:22;3.30;;;1.90;;
70967;SDS011;58629;48.808;8.820;2022-07-04T08:33:49;1.98;;;1.67;;
70967;SDS011;58629;48.808;8.820;2022-07-04T08:36:16;1.40;;;1.30;;
70967;SDS011;58629;48.808;8.820;2022-07-04T08:38:41;2.53;;;1.80;;
70967;SDS011;58629;48.808;8.820;2022-07-04T08:41:06;2.40;;;1.77;;
70967;SDS011;58629;48.808;8.820;2022-07-04T08:43:32;3.05;;;2.20;;
70967;SDS011;58629;48.808;8.820;2022-07-04T08:45:59;3.45;;;2.20;;
70967;SDS011;58629;48.808;8.820;2022-07-04T08:48:27;2.67;;;1.98;;
70967;SDS011;58629;48.808;8.820;2022-07-04T08:50:56;1.70;;;1.60;;
70967;SDS011;58629;48.808;8.820;2022-07-04T08:53:26;3.60;;;2.10;;
70967;SDS011;58629;48.808;8.820;2022-07-04T08:55:53;2.33;;;1.98;;
70967;SDS011;58629;48.808;8.820;2022-07-04T08:58:40;3.47;;;1.83;;
70967;SDS011;58629;48.808;8.820;2022-07-04T09:01:08;2.97;;;2.35;;
70967;SDS011;58629;48.808;8.820;2022-07-04T09:03:43;2.30;;;1.95;;
70967;SDS011;58629;48.808;8.820;2022-07-04T09:06:10;1.73;;;1.50;;
70967;SDS011;58629;48.808;8.820;2022-07-04T09:08:38;2.47;;;1.80;;
70967;SDS011;58629;48.808;8.820;2022-07-04T09:11:04;2.00;;;1.60;;
70967;SDS011;58629;48.808;8.820;2022-07-04T09:13:30;3.13;;;1.95;;
70967;SDS011;58629;48.808;8.820;2022-07-04T09:15:56;2.47;;;1.80;;
70967;SDS011;58629;48.808;8.820;2022-07-04T09:18:23;1.52;;;1.40;;
70967;SDS011;58629;48.808;8.820;2022-07-04T09:20:50;3.33;;;2.25;;
70967;SDS011;58629;48.808;8.820;2022-07-04T09:23:20;2.42;;;2.20;;
70967;SDS011;58629;48.808;8.820;2022-07-04T09:25:48;2.20;;;2.00;;
70967;SDS011;58629;48.808;8.820;2022-07-04T09:28:27;2.10;;;1.90;;
70967;SDS011;58629;48.808;8.820;2022-07-04T09:30:53;2.22;;;2.03;;
70967;SDS011;58629;48.808;8.820;2022-07-04T09:33:19;2.73;;;2.20;;
70967;SDS011;58629;48.808;8.820;2022-07-04T09:35:46;1.92;;;1.83;;
70967;SDS011;58629;48.808;8.820;2022-07-04T09:38:11;2.00;;;1.90;;
70967;SDS011;58629;48.808;8.820;2022-07-04T09:40:38;2.00;;;1.80;;
70967;SDS011;58629;48.808;8.820;2022-07-04T09:43:23;2.13;;;1.85;;
70967;SDS011;58629;48.808;8.820;2022-07-04T09:45:55;2.65;;;1.85;;
70967;SDS011;58629;48.808;8.820;2022-07-04T09:48:22;2.83;;;1.70;;
70967;SDS011;58629;48.808;8.820;2022-07-04T09:50:48;1.65;;;1.55;;
70967;SDS011;58629;48.808;8.820;2022-07-04T09:53:14;2.42;;;2.03;;
70967;SDS011;58629;48.808;8.820;2022-07-04T09:55:39;3.70;;;2.40;;
70967;SDS011;58629;48.808;8.820;2022-07-04T09:58:09;2.43;;;2.10;;
70967;SDS011;58629;48.808;8.820;2022-07-04T10:03:16;2.55;;;1.77;;
70967;SDS011;58629;48.808;8.820;2022-07-04T10:05:42;1.65;;;1.52;;
70967;SDS011;58629;48.808;8.820;2022-07-04T10:08:08;2.10;;;1.90;;
70967;SDS011;58629;48.808;8.820;2022-07-04T10:10:36;2.55;;;2.08;;
70967;SDS011;58629;48.808;8.820;2022-07-04T10:13:09;1.80;;;1.70;;
70967;SDS011;58629;48.808;8.820;2022-07-04T10:15:36;3.20;;;1.92;;
70967;SDS011;58629;48.808;8.820;2022-07-04T10:18:07;2.65;;;2.30;;
70967;SDS011;58629;48.808;8.820;2022-07-04T10:20:34;3.40;;;2.40;;
70967;SDS011;58629;48.808;8.820;2022-07-04T10:23:00;2.38;;;2.17;;
70967;SDS011;58629;48.808;8.820;2022-07-04T10:25:26;3.07;;;2.00;;
70967;SDS011;58629;48.808;8.820;2022-07-04T10:27:51;2.50;;;2.30;;
70967;SDS011;58629;48.808;8.820;2022-07-04T10:30:20;2.43;;;1.97;;
70967;SDS011;58629;48.808;8.820;2022-07-04T10:32:48;3.40;;;2.08;;
70967;SDS011;58629;48.808;8.820;2022-07-04T10:35:15;2.28;;;2.08;;
70967;SDS011;58629;48.808;8.820;2022-07-04T10:37:57;2.17;;;1.97;;
70967;SDS011;58629;48.808;8.820;2022-07-04T10:40:40;2.00;;;1.90;;
70967;SDS011;58629;48.808;8.820;2022-07-04T10:51:20;1.55;;;1.40;;
70967;SDS011;58629;48.808;8.820;2022-07-04T10:54:02;2.15;;;1.80;;
70967;SDS011;58629;48.808;8.820;2022-07-04T10:58:55;2.23;;;2.03;;
70967;SDS011;58629;48.808;8.820;2022-07-04T11:01:22;2.57;;;2.37;;
70967;SDS011;58629;48.808;8.820;2022-07-04T11:03:49;2.35;;;1.98;;
70967;SDS011;58629;48.808;8.820;2022-07-04T11:17:07;2.73;;;1.87;;
70967;SDS011;58629;48.808;8.820;2022-07-04T11:19:33;2.92;;;2.30;;
70967;SDS011;58629;48.808;8.820;2022-07-04T11:21:59;2.63;;;2.40;;
70967;SDS011;58629;48.808;8.820;2022-07-04T11:24:24;3.23;;;2.70;;
70967;SDS011;58629;48.808;8.820;2022-07-04T11:26:51;3.95;;;2.47;;
70967;SDS011;58629;48.808;8.820;2022-07-04T11:29:16;2.80;;;2.13;;
70967;SDS011;58629;48.808;8.820;2022-07-04T11:31:42;2.20;;;1.98;;
70967;SDS011;58629;48.808;8.820;2022-07-04T11:34:10;2.40;;;2.20;;
70967;SDS011;58629;48.808;8.820;2022-07-04T11:36:36;3.20;;;2.50;;
70967;SDS011;58629;48.808;8.820;2022-07-04T11:39:04;2.63;;;2.42;;
70967;SDS011;58629;48.808;8.820;2022-07-04T11:41:34;2.80;;;2.50;;
70967;SDS011;58629;48.808;8.820;2022-07-04T11:44:21;3.13;;;2.70;;
70967;SDS011;58629;48.808;8.820;2022-07-04T11:47:22;3.47;;;2.30;;
70967;SDS011;58629;48.808;8.820;2022-07-04T11:49:48;3.35;;;2.40;;
70967;SDS011;58629;48.808;8.820;2022-07-04T11:52:25;3.40;;;2.25;;
70967;SDS011;58629;48.808;8.820;2022-07-04T11:54:53;2.30;;;2.10;;
70967;SDS011;58629;48.808;8.820;2022-07-04T11:57:19;2.50;;;2.30;;
70967;SDS011;58629;48.808;8.820;2022-07-04T11:59:56;2.57;;;2.37;;
70967;SDS011;58629;48.808;8.820;2022-07-04T12:02:39;3.05;;;2.35;;
70967;SDS011;58629;48.808;8.820;2022-07-04T12:05:05;2.92;;;2.30;;
70967;SDS011;58629;48.808;8.820;2022-07-04T12:07:32;2.10;;;1.90;;
70967;SDS011;58629;48.808;8.820;2022-07-04T12:10:09;2.00;;;1.90;;
70967;SDS011;58629;48.808;8.820;2022-07-04T12:12:35;3.25;;;2.30;;
70967;SDS011;58629;48.808;8.820;2022-07-04T12:15:01;2.40;;;1.90;;
70967;SDS011;58629;48.808;8.820;2022-07-04T12:17:31;3.17;;;2.58;;
70967;SDS011;58629;48.808;8.820;2022-07-04T12:19:59;2.70;;;2.50;;
70967;SDS011;58629;48.808;8.820;2022-07-04T12:22:27;6.97;;;2.65;;
70967;SDS011;58629;48.808;8.820;2022-07-04T12:25:22;2.93;;;2.67;;
70967;SDS011;58629;48.808;8.820;2022-07-04T12:27:54;2.00;;;1.90;;
70967;SDS011;58629;48.808;8.820;2022-07-04T12:30:22;1.83;;;1.73;;
70967;SDS011;58629;48.808;8.820;2022-07-04T12:32:49;2.30;;;2.10;;
70967;SDS011;58629;48.808;8.820;2022-07-04T12:37:59;2.27;;;2.07;;
70967;SDS011;58629;48.808;8.820;2022-07-04T12:40:26;4.18;;;2.65;;
70967;SDS011;58629;48.808;8.820;2022-07-04T12:42:51;2.27;;;2.00;;
70967;SDS011;58629;48.808;8.820;2022-07-04T12:45:20;3.15;;;2.30;;
70967;SDS011;58629;48.808;8.820;2022-07-04T12:47:49;2.23;;;2.10;;
70967;SDS011;58629;48.808;8.820;2022-07-04T12:50:14;2.28;;;1.92;;
70967;SDS011;58629;48.808;8.820;2022-07-04T12:52:39;2.47;;;2.10;;
70967;SDS011;58629;48.808;8.820;2022-07-04T12:55:06;3.20;;;2.28;;
70967;SDS011;58629;48.808;8.820;2022-07-04T12:57:35;3.40;;;2.67;;
70967;SDS011;58629;48.808;8.820;2022-07-04T13:00:00;2.72;;;2.45;;
70967;SDS011;58629;48.808;8.820;2022-07-04T13:02:25;2.50;;;2.30;;
70967;SDS011;58629;48.808;8.820;2022-07-04T13:04:51;2.67;;;2.47;;
70967;SDS011;58629;48.808;8.820;2022-07-04T13:07:16;2.80;;;2.60;;
70967;SDS011;58629;48.808;8.820;2022-07-04T13:09:43;2.50;;;2.30;;
70967;SDS011;58629;48.808;8.820;2022-07-04T13:12:11;3.28;;;2.55;;
70967;SDS011;58629;48.808;8.820;2022-07-04T13:14:50;3.05;;;2.85;;
70967;SDS011;58629;48.808;8.820;2022-07-04T13:17:16;5.13;;;2.87;;
70967;SDS011;58629;48.808;8.820;2022-07-04T13:19:42;3.90;;;3.20;;
70967;SDS011;58629;48.808;8.820;2022-07-04T13:22:07;6.37;;;2.97;;
70967;SDS011;58629;48.808;8.820;2022-07-04T13:24:32;3.03;;;2.83;;
70967;SDS011;58629;48.808;8.820;2022-07-04T13:26:58;3.10;;;2.77;;
70967;SDS011;58629;48.808;8.820;2022-07-04T13:29:23;3.93;;;2.77;;
70967;SDS011;58629;48.808;8.820;2022-07-04T13:31:49;5.20;;;3.13;;
70967;SDS011;58629;48.808;8.820;2022-07-04T13:34:15;3.00;;;2.70;;
70967;SDS011;58629;48.808;8.820;2022-07-04T13:36:40;3.10;;;2.80;;
70967;SDS011;58629;48.808;8.820;2022-07-04T13:39:06;2.97;;;2.70;;
70967;SDS011;58629;48.808;8.820;2022-07-04T13:41:34;3.53;;;3.20;;
70967;SDS011;58629;48.808;8.820;2022-07-04T13:44:07;4.05;;;2.92;;
70967;SDS011;58629;48.808;8.820;2022-07-04T13:46:33;4.13;;;3.23;;
70967;SDS011;58629;48.808;8.820;2022-07-04T13:49:04;3.53;;;3.20;;
70967;SDS011;58629;48.808;8.820;2022-07-04T13:51:30;4.07;;;3.00;;
70967;SDS011;58629;48.808;8.820;2022-07-04T13:53:55;4.03;;;3.10;;
70967;SDS011;58629;48.808;8.820;2022-07-04T13:56:21;3.47;;;3.10;;
70967;SDS011;58629;48.808;8.820;2022-07-04T13:58:46;3.07;;;2.77;;
70967;SDS011;58629;48.808;8.820;2022-07-04T14:01:12;6.30;;;2.88;;
70967;SDS011;58629;48.808;8.820;2022-07-04T14:03:38;3.47;;;2.70;;
70967;SDS011;58629;48.808;8.820;2022-07-04T14:06:04;4.22;;;2.90;;
70967;SDS011;58629;48.808;8.820;2022-07-04T14:08:29;3.60;;;2.80;;
70967;SDS011;58629;48.808;8.820;2022-07-04T14:10:55;2.77;;;2.57;;
70967;SDS011;58629;48.808;8.820;2022-07-04T14:13:20;4.47;;;2.60;;
70967;SDS011;58629;48.808;8.820;2022-07-04T14:15:46;3.40;;;3.00;;
70967;SDS011;58629;48.808;8.820;2022-07-04T14:18:11;4.43;;;2.97;;
70967;SDS011;58629;48.808;8.820;2022-07-04T14:20:39;2.75;;;2.55;;
70967;SDS011;58629;48.808;8.820;2022-07-04T14:23:05;4.10;;;3.05;;
70967;SDS011;58629;48.808;8.820;2022-07-04T14:25:31;4.00;;;2.53;;
70967;SDS011;58629;48.808;8.820;2022-07-04T14:27:56;3.47;;;2.90;;
70967;SDS011;58629;48.808;8.820;2022-07-04T14:30:21;3.00;;;2.67;;
70967;SDS011;58629;48.808;8.820;2022-07-04T14:32:47;2.90;;;2.70;;
70967;SDS011;58629;48.808;8.820;2022-07-04T14:35:12;2.80;;;2.50;;
70967;SDS011;58629;48.808;8.820;2022-07-04T14:37:38;3.05;;;2.75;;
70967;SDS011;58629;48.808;8.820;2022-07-04T14:40:03;4.07;;;2.90;;
70967;SDS011;58629;48.808;8.820;2022-07-04T14:42:29;3.05;;;2.75;;
70967;SDS011;58629;48.808;8.820;2022-07-04T14:44:54;3.00;;;2.70;;
70967;SDS011;58629;48.808;8.820;2022-07-04T14:47:20;3.67;;;2.43;;
70967;SDS011;58629;48.808;8.820;2022-07-04T14:49:45;3.03;;;2.23;;
70967;SDS011;58629;48.808;8.820;2022-07-04T14:52:10;5.93;;;2.70;;
70967;SDS011;58629;48.808;8.820;2022-07-04T14:54:36;5.55;;;2.60;;
70967;SDS011;58629;48.808;8.820;2022-07-04T14:57:01;4.13;;;2.70;;
70967;SDS011;58629;48.808;8.820;2022-07-04T14:59:27;3.30;;;2.90;;
70967;SDS011;58629;48.808;8.820;2022-07-04T15:01:52;2.80;;;2.58;;
70967;SDS011;58629;48.808;8.820;2022-07-04T15:04:18;3.50;;;2.80;;
70967;SDS011;58629;48.808;8.820;2022-07-04T15:06:43;6.13;;;2.43;;
70967;SDS011;58629;48.808;8.820;2022-07-04T15:09:09;2.65;;;2.45;;
70967;SDS011;58629;48.808;8.820;2022-07-04T15:11:35;2.60;;;2.40;;
70967;SDS011;58629;48.808;8.820;2022-07-04T15:14:00;3.35;;;2.25;;